createdAt,value
2022-11-20T00:01:19.591Z,98657.34
2022-11-20T00:03:47.316Z,98664.78
2022-11-20T00:06:16.157Z,98661.66
2022-11-20T00:08:43.311Z,98666.31
2022-11-20T00:11:21.643Z,98662.84
2022-11-20T00:13:50.299Z,98663.81
2022-11-20T00:16:19.111Z,98660.19
2022-11-20T00:18:45.928Z,98660.03
2022-11-20T00:21:14.976Z,98664.28
2022-11-20T00:23:41.510Z,98657.00
2022-11-20T00:26:10.373Z,98657.66
2022-11-20T00:28:37.609Z,98658.00
2022-11-20T00:31:10.193Z,98646.75
2022-11-20T00:33:37.210Z,98645.25
2022-11-20T00:36:06.477Z,98640.63
2022-11-20T00:38:34.021Z,98639.47
2022-11-20T00:41:02.898Z,98627.91
2022-11-20T00:43:31.284Z,98630.38
2022-11-20T00:45:58.894Z,98620.63
2022-11-20T00:48:25.835Z,98620.44
2022-11-20T00:50:52.465Z,98618.47
2022-11-20T00:53:19.335Z,98627.91
2022-11-20T00:56:06.546Z,98617.16
2022-11-20T00:58:35.553Z,98621.47
2022-11-20T01:01:04.288Z,98616.34
2022-11-20T01:03:35.088Z,98624.75
2022-11-20T01:06:07.368Z,98631.22
2022-11-20T01:08:35.733Z,98627.75
2022-11-20T01:11:10.544Z,98635.50
2022-11-20T01:13:37.707Z,98636.38
2022-11-20T01:16:05.608Z,98633.53
2022-11-20T01:18:32.304Z,98635.53
2022-11-20T01:21:08.153Z,98637.84
2022-11-20T01:23:36.403Z,98643.00
2022-11-20T01:26:08.395Z,98642.00
2022-11-20T01:28:35.842Z,98642.47
2022-11-20T01:31:02.940Z,98646.13
2022-11-20T01:33:29.342Z,98657.22
2022-11-20T01:36:04.818Z,98662.81
2022-11-20T01:38:31.183Z,98673.94
2022-11-20T01:40:57.602Z,98690.47
2022-11-20T01:43:24.562Z,98684.66
2022-11-20T01:46:15.552Z,98688.81
2022-11-20T01:48:49.637Z,98686.84
2022-11-20T01:51:28.599Z,98679.72
2022-11-20T01:53:57.227Z,98690.63
2022-11-20T01:56:24.694Z,98686.16
2022-11-20T01:58:54.447Z,98688.16
2022-11-20T02:01:22.326Z,98682.50
2022-11-20T02:03:50.237Z,98685.16
2022-11-20T02:06:30.663Z,98679.53
2022-11-20T02:08:57.120Z,98676.38
2022-11-20T02:11:23.687Z,98681.19
2022-11-20T02:13:51.471Z,98680.50
2022-11-20T02:16:28.264Z,98681.16
2022-11-20T02:18:56.583Z,98681.31
2022-11-20T02:21:40.090Z,98689.09
2022-11-20T02:24:13.668Z,98700.00
2022-11-20T02:26:52.448Z,98694.34
2022-11-20T02:29:25.829Z,98697.00
2022-11-20T02:31:53.099Z,98698.00
2022-11-20T02:34:19.661Z,98696.66
2022-11-20T02:36:47.667Z,98688.25
2022-11-20T02:39:14.705Z,98692.72
2022-11-20T02:41:41.060Z,98691.72
2022-11-20T02:44:07.636Z,98687.41
2022-11-20T02:46:34.431Z,98686.59
2022-11-20T02:49:02.552Z,98688.72
2022-11-20T02:51:29.706Z,98686.22
2022-11-20T02:53:56.221Z,98691.22
2022-11-20T02:56:22.588Z,98687.06
2022-11-20T02:58:49.006Z,98690.38
2022-11-20T03:01:15.644Z,98695.34
2022-11-20T03:03:42.150Z,98689.56
2022-11-20T03:06:09.075Z,98687.41
2022-11-20T03:08:35.738Z,98681.47
2022-11-20T03:11:06.925Z,98678.81
2022-11-20T03:13:34.338Z,98691.09
2022-11-20T03:16:16.847Z,98694.69
2022-11-20T03:18:44.337Z,98690.25
2022-11-20T03:21:12.528Z,98697.34
2022-11-20T03:23:39.562Z,98693.06
2022-11-20T03:26:11.917Z,98693.25
2022-11-20T03:28:38.749Z,98686.94
2022-11-20T03:31:10.791Z,98688.44
2022-11-20T03:33:37.570Z,98678.50
2022-11-20T03:36:06.865Z,98686.28
2022-11-20T03:38:34.220Z,98684.78
2022-11-20T03:41:06.466Z,98684.78
2022-11-20T03:43:33.288Z,98685.16
2022-11-20T03:45:59.984Z,98692.09
2022-11-20T03:48:26.895Z,98684.81
2022-11-20T03:50:54.549Z,98686.78
2022-11-20T03:53:21.497Z,98684.81
2022-11-20T03:55:52.720Z,98690.94
2022-11-20T03:58:19.261Z,98689.91
2022-11-20T04:00:45.669Z,98690.91
2022-11-20T04:03:12.266Z,98699.16
2022-11-20T04:05:38.710Z,98700.47
2022-11-20T04:08:05.502Z,98701.31
2022-11-20T04:10:31.948Z,98695.16
2022-11-20T04:12:58.646Z,98700.16
2022-11-20T04:15:25.145Z,98695.66
2022-11-20T04:17:51.577Z,98701.47
2022-11-20T04:20:18.115Z,98689.38
2022-11-20T04:22:44.436Z,98691.69
2022-11-20T04:25:10.743Z,98682.09
2022-11-20T04:27:37.260Z,98687.06
2022-11-20T04:30:04.240Z,98682.13
2022-11-20T04:32:30.616Z,98681.81
2022-11-20T04:34:57.026Z,98679.81
2022-11-20T04:37:23.504Z,98668.56
2022-11-20T04:39:49.902Z,98659.50
2022-11-20T04:42:16.514Z,98641.47
2022-11-20T04:44:43.012Z,98622.63
2022-11-20T04:47:09.554Z,98596.00
2022-11-20T04:49:36.262Z,98583.09
2022-11-20T04:52:02.932Z,98559.97
2022-11-20T04:54:29.483Z,98276.66
2022-11-20T04:56:55.903Z,98275.97
2022-11-20T04:59:22.683Z,98275.13
2022-11-20T05:01:49.694Z,98272.50
2022-11-20T05:04:16.149Z,98270.16
2022-11-20T05:06:42.812Z,98270.97
2022-11-20T05:09:10.959Z,98267.78
2022-11-20T05:11:37.400Z,98261.03
2022-11-20T05:14:03.772Z,98271.09
2022-11-20T05:16:30.397Z,98263.16
2022-11-20T05:18:57.127Z,98264.13
2022-11-20T05:21:23.618Z,98264.81
2022-11-20T05:23:50.205Z,98273.09
2022-11-20T05:26:22.713Z,98270.28
2022-11-20T05:28:50.665Z,98278.84
2022-11-20T05:31:27.202Z,98271.56
2022-11-20T05:33:55.060Z,98272.41
2022-11-20T05:36:22.036Z,98269.09
2022-11-20T05:38:50.874Z,98268.56
2022-11-20T05:41:20.875Z,98270.34
2022-11-20T05:43:48.399Z,98261.56
2022-11-20T05:46:17.282Z,98259.41
2022-11-20T05:48:45.115Z,98259.69
2022-11-20T05:51:14.780Z,98251.59
2022-11-20T05:53:46.843Z,98260.88
2022-11-20T05:56:18.126Z,98262.53
2022-11-20T05:58:45.046Z,98259.00
2022-11-20T06:01:16.094Z,98259.81
2022-11-20T06:03:43.881Z,98257.81
2022-11-20T06:06:10.174Z,98254.81
2022-11-20T06:08:36.624Z,98264.41
2022-11-20T06:11:07.558Z,98261.75
2022-11-20T06:13:36.883Z,98259.47
2022-11-20T06:16:06.395Z,98257.81
2022-11-20T06:18:33.429Z,98264.75
2022-11-20T06:21:06.800Z,98258.75
2022-11-20T06:23:35.244Z,98255.09
2022-11-20T06:26:03.274Z,98255.94
2022-11-20T06:28:29.670Z,98265.69
2022-11-20T06:30:56.295Z,98262.06
2022-11-20T06:33:22.966Z,98264.38
2022-11-20T06:35:49.480Z,98267.47
2022-11-20T06:38:15.846Z,98265.69
2022-11-20T06:40:43.180Z,98268.34
2022-11-20T06:43:11.018Z,98264.53
2022-11-20T06:45:37.810Z,98273.63
2022-11-20T06:48:05.028Z,98271.28
2022-11-20T06:50:31.722Z,98270.63
2022-11-20T06:53:02.106Z,98270.84
2022-11-20T06:55:28.577Z,98271.66
2022-11-20T06:57:56.099Z,98272.31
2022-11-20T07:00:22.947Z,98276.44
2022-11-20T07:02:49.301Z,98278.44
2022-11-20T07:05:15.699Z,98275.13
2022-11-20T07:07:42.260Z,98280.78
2022-11-20T07:10:09.557Z,98276.13
2022-11-20T07:12:35.955Z,98271.84
2022-11-20T07:15:02.393Z,98282.44
2022-11-20T07:17:28.983Z,98283.72
2022-11-20T07:19:55.327Z,98278.44
2022-11-20T07:22:22.736Z,98286.84
2022-11-20T07:24:49.454Z,98288.31
2022-11-20T07:27:15.853Z,98291.00
2022-11-20T07:29:42.555Z,98293.31
2022-11-20T07:32:09.161Z,98292.31
2022-11-20T07:34:37.095Z,98284.31
2022-11-20T07:37:07.549Z,98293.38
2022-11-20T07:39:36.637Z,98294.84
2022-11-20T07:42:03.176Z,98295.59
2022-11-20T07:44:29.772Z,98296.06
2022-11-20T07:46:56.116Z,98296.22
2022-11-20T07:49:22.587Z,98298.16
2022-11-20T07:51:52.152Z,98300.00
2022-11-20T07:54:18.558Z,98295.25
2022-11-20T07:56:45.018Z,98300.72
2022-11-20T07:59:11.615Z,98294.41
2022-11-20T08:01:38.545Z,98297.00
2022-11-20T08:04:05.162Z,98292.47
2022-11-20T08:06:31.702Z,98293.00
2022-11-20T08:08:58.256Z,98294.28
2022-11-20T08:11:24.734Z,98307.38
2022-11-20T08:13:51.294Z,98305.91
2022-11-20T08:16:17.901Z,98299.16
2022-11-20T08:18:44.405Z,98310.19
2022-11-20T08:21:10.872Z,98308.75
2022-11-20T08:23:37.483Z,98297.97
2022-11-20T08:26:03.973Z,98311.22
2022-11-20T08:28:30.576Z,98313.03
2022-11-20T08:31:03.714Z,98316.31
2022-11-20T08:33:31.331Z,98312.47
2022-11-20T08:36:04.581Z,98323.53
2022-11-20T08:38:31.731Z,98322.53
2022-11-20T08:41:03.395Z,98326.66
2022-11-20T08:43:30.020Z,98329.41
2022-11-20T08:45:58.125Z,98320.28
2022-11-20T08:48:24.600Z,98324.13
2022-11-20T08:50:51.165Z,98331.19
2022-11-20T08:53:17.499Z,98330.06
2022-11-20T08:55:44.151Z,98322.19
2022-11-20T08:58:10.545Z,98320.63
2022-11-20T09:00:36.961Z,98318.81
2022-11-20T09:03:03.428Z,98320.75
2022-11-20T09:05:30.351Z,98321.56
2022-11-20T09:07:58.270Z,98324.22
2022-11-20T09:10:28.072Z,98320.38
2022-11-20T09:12:54.741Z,98322.03
2022-11-20T09:15:21.103Z,98326.97
2022-11-20T09:17:54.501Z,98325.78
2022-11-20T09:20:21.399Z,98330.38
2022-11-20T09:22:48.505Z,98322.81
2022-11-20T09:25:15.173Z,98331.88
2022-11-20T09:27:41.899Z,98329.78
2022-11-20T09:30:08.748Z,98331.16
2022-11-20T09:32:35.326Z,98333.63
2022-11-20T09:37:28.341Z,98325.13
2022-11-20T09:39:54.973Z,98333.25
2022-11-20T09:42:47.251Z,98335.66
2022-11-20T09:45:28.777Z,98339.84
2022-11-20T09:48:05.966Z,98335.53
2022-11-20T09:50:58.908Z,98343.88
2022-11-20T09:54:02.217Z,98340.84
2022-11-20T09:56:30.083Z,98342.50
2022-11-20T09:59:00.870Z,98346.25
2022-11-20T10:01:32.964Z,98339.22
2022-11-20T10:04:04.371Z,98345.53
2022-11-20T10:06:32.406Z,98346.16
2022-11-20T10:09:11.173Z,98339.84
2022-11-20T10:11:55.328Z,98343.97
2022-11-20T10:14:36.008Z,98347.25
2022-11-20T10:17:20.725Z,98344.03
2022-11-20T10:20:21.085Z,98334.72
2022-11-20T10:23:05.302Z,98341.31
2022-11-20T10:25:39.786Z,98340.22
2022-11-20T10:28:21.236Z,98341.31
2022-11-20T10:30:58.337Z,98341.59
2022-11-20T10:33:34.922Z,98337.19
2022-11-20T10:36:23.984Z,98347.72
2022-11-20T10:39:04.670Z,98336.66
2022-11-20T10:41:38.011Z,98336.91
2022-11-20T10:44:23.739Z,98340.03
2022-11-20T10:46:50.320Z,98341.22
2022-11-20T10:49:20.519Z,98333.44
2022-11-20T10:52:15.187Z,98342.22
2022-11-20T10:55:04.937Z,98348.75
2022-11-20T10:57:49.832Z,98347.63
2022-11-20T11:00:17.367Z,98339.09
2022-11-20T11:02:52.631Z,98344.16
2022-11-20T11:05:28.878Z,98360.44
2022-11-20T11:07:57.292Z,98349.00
2022-11-20T11:10:51.502Z,98348.19
2022-11-20T11:13:26.036Z,98334.06
2022-11-20T11:15:53.610Z,98335.66
2022-11-20T11:18:34.934Z,98336.63
2022-11-20T11:21:04.001Z,98339.47
2022-11-20T11:23:37.231Z,98337.00
2022-11-20T11:26:07.311Z,98330.41
2022-11-20T11:28:34.507Z,98332.06
2022-11-20T11:31:00.962Z,98330.22
2022-11-20T11:33:30.190Z,98325.13
2022-11-20T11:36:02.614Z,98325.56
2022-11-20T11:38:35.914Z,98319.09
2022-11-20T11:41:04.385Z,98312.38
2022-11-20T11:43:36.921Z,98311.94
2022-11-20T11:46:22.756Z,98307.38
2022-11-20T11:49:00.155Z,98303.13
2022-11-20T11:51:33.898Z,98287.97
2022-11-20T11:54:04.265Z,98290.47
2022-11-20T11:56:33.953Z,98290.72
2022-11-20T11:59:07.598Z,98281.28
2022-11-20T12:01:42.911Z,98276.22
2022-11-20T12:04:20.160Z,98270.50
2022-11-20T12:06:52.809Z,98273.38
2022-11-20T12:09:21.324Z,98263.84
2022-11-20T12:11:55.736Z,98257.19
2022-11-20T12:14:28.465Z,98262.88
2022-11-20T12:16:58.302Z,98253.59
2022-11-20T12:19:25.741Z,98251.19
2022-11-20T12:22:18.067Z,98241.50
2022-11-20T12:25:06.441Z,98237.41
2022-11-20T12:28:03.372Z,98238.22
2022-11-20T12:30:34.432Z,98239.72
2022-11-20T12:33:19.497Z,98228.81
2022-11-20T12:35:54.729Z,98234.00
2022-11-20T12:38:47.472Z,98223.41
2022-11-20T12:41:33.977Z,98227.44
2022-11-20T12:44:25.492Z,98214.47
2022-11-20T12:47:13.826Z,98219.72
2022-11-20T12:49:54.071Z,98225.28
2022-11-20T12:52:38.920Z,98229.50
2022-11-20T12:55:22.206Z,98227.66
2022-11-20T12:57:57.603Z,98230.72
2022-11-20T13:00:25.312Z,98230.84
2022-11-20T13:03:07.816Z,98229.91
2022-11-20T13:05:47.663Z,98226.19
2022-11-20T13:08:24.521Z,98223.72
2022-11-20T13:11:07.211Z,98220.47
2022-11-20T13:14:06.153Z,98211.47
2022-11-20T13:16:38.558Z,98215.63
2022-11-20T13:19:06.460Z,98217.31
2022-11-20T13:21:38.826Z,98205.44
2022-11-20T13:24:21.399Z,98209.47
2022-11-20T13:26:48.375Z,98210.91
2022-11-20T13:29:20.670Z,98213.31
2022-11-20T13:31:49.224Z,98213.06
2022-11-20T13:34:26.848Z,98201.44
2022-11-20T13:36:57.525Z,98202.03
2022-11-20T13:39:33.115Z,98200.09
2022-11-20T13:42:21.163Z,98191.53
2022-11-20T13:44:51.943Z,98192.47
2022-11-20T13:47:28.975Z,98203.88
2022-11-20T13:49:58.193Z,98199.38
2022-11-20T13:52:52.332Z,98192.06
2022-11-20T13:55:29.112Z,98185.16
2022-11-20T13:58:14.348Z,98183.28
2022-11-20T14:00:58.013Z,98186.66
2022-11-20T14:03:51.279Z,98185.41
2022-11-20T14:06:26.678Z,98181.66
2022-11-20T14:08:53.246Z,98176.75
2022-11-20T14:11:25.108Z,98174.47
2022-11-20T14:13:59.590Z,98179.00
2022-11-20T14:16:28.342Z,98170.25
2022-11-20T14:18:55.943Z,98178.66
2022-11-20T14:21:30.335Z,98171.19
2022-11-20T14:24:07.268Z,98174.88
2022-11-20T14:26:34.348Z,98172.34
2022-11-20T14:29:01.026Z,98179.66
2022-11-20T14:31:28.817Z,98182.41
2022-11-20T14:33:56.355Z,98183.34
2022-11-20T14:36:26.386Z,98179.41
2022-11-20T14:38:53.767Z,98181.59
2022-11-20T14:41:22.854Z,98177.44
2022-11-20T14:43:57.419Z,98182.59
2022-11-20T14:46:24.750Z,98174.44
2022-11-20T14:48:56.706Z,98180.22
2022-11-20T14:51:37.963Z,98171.56
2022-11-20T14:54:10.338Z,98174.59
2022-11-20T14:56:36.729Z,98176.44
2022-11-20T14:59:03.516Z,98169.50
2022-11-20T15:01:31.926Z,98164.56
2022-11-20T15:04:02.544Z,98161.47
2022-11-20T15:06:29.557Z,98161.59
2022-11-20T15:08:56.062Z,98163.75
2022-11-20T15:11:29.615Z,98158.56
2022-11-20T15:13:56.198Z,98153.19
2022-11-20T15:16:24.502Z,98151.28
2022-11-20T15:18:51.638Z,98154.63
2022-11-20T15:21:20.347Z,98148.41
2022-11-20T15:23:46.828Z,98155.91
2022-11-20T15:26:19.882Z,98157.75
2022-11-20T15:28:48.484Z,98151.44
2022-11-20T15:31:20.771Z,98156.75
2022-11-20T15:33:48.057Z,98146.47
2022-11-20T15:36:14.909Z,98134.00
2022-11-20T15:38:41.878Z,98134.22
2022-11-20T15:41:09.523Z,98133.13
2022-11-20T15:43:36.118Z,98136.53
2022-11-20T15:46:05.518Z,98134.25
2022-11-20T15:48:47.404Z,98134.38
2022-11-20T15:51:36.491Z,98133.09
2022-11-20T15:54:11.780Z,98127.63
2022-11-20T15:56:38.375Z,98128.16
2022-11-20T15:59:04.941Z,98127.44
2022-11-20T16:01:31.585Z,98115.47
2022-11-20T16:03:58.325Z,98127.56
2022-11-20T16:06:24.815Z,98129.22
2022-11-20T16:08:51.249Z,98130.41
2022-11-20T16:11:18.545Z,98133.97
2022-11-20T16:13:45.511Z,98134.69
2022-11-20T16:16:27.925Z,98137.25
2022-11-20T16:18:54.583Z,98148.88
2022-11-20T16:21:21.072Z,98146.22
2022-11-20T16:23:47.496Z,98135.63
2022-11-20T16:26:16.263Z,98144.22
2022-11-20T16:28:42.741Z,98137.69
2022-11-20T16:31:11.797Z,98138.19
2022-11-20T16:33:38.225Z,98133.50
2022-11-20T16:36:12.591Z,98138.19
2022-11-20T16:38:39.357Z,98136.06
2022-11-20T16:41:06.577Z,98133.88
2022-11-20T16:43:33.066Z,98127.75
2022-11-20T16:45:59.496Z,98119.63
2022-11-20T16:48:26.009Z,98120.44
2022-11-20T16:50:53.979Z,98118.78
2022-11-20T16:53:22.017Z,98109.56
2022-11-20T16:55:49.013Z,98117.06
2022-11-20T16:58:15.945Z,98124.19
2022-11-20T17:00:47.052Z,98120.53
2022-11-20T17:03:17.835Z,98119.50
2022-11-20T17:05:44.316Z,98116.41
2022-11-20T17:08:10.909Z,98109.13
2022-11-20T17:10:37.299Z,98113.50
2022-11-20T17:13:03.749Z,98109.56
2022-11-20T17:15:31.324Z,98110.56
2022-11-20T17:17:57.760Z,98116.06
2022-11-20T17:20:24.434Z,98107.63
2022-11-20T17:22:50.920Z,98104.53
2022-11-20T17:25:17.346Z,98109.38
2022-11-20T17:27:43.863Z,98109.56
2022-11-20T17:30:10.429Z,98110.91
2022-11-20T17:32:36.806Z,98110.28
2022-11-20T17:35:03.223Z,98109.44
2022-11-20T17:37:29.492Z,98114.28
2022-11-20T17:39:56.093Z,98114.63
2022-11-20T17:42:22.425Z,98109.72
2022-11-20T17:44:48.936Z,98105.44
2022-11-20T17:47:16.616Z,98102.97
2022-11-20T17:49:43.040Z,98102.13
2022-11-20T17:52:09.615Z,98100.31
2022-11-20T17:54:36.254Z,98097.03
2022-11-20T17:57:02.695Z,98098.03
2022-11-20T17:59:29.386Z,98086.44
2022-11-20T18:01:58.569Z,98076.66
2022-11-20T18:04:28.983Z,98080.47
2022-11-20T18:06:55.269Z,98081.94
2022-11-20T18:09:21.870Z,98079.31
2022-11-20T18:11:48.598Z,98073.84
2022-11-20T18:14:17.289Z,98071.66
2022-11-20T18:16:46.556Z,98070.00
2022-11-20T18:19:17.001Z,98067.53
2022-11-20T18:21:43.399Z,98065.25
2022-11-20T18:24:10.868Z,98067.19
2022-11-20T18:26:42.899Z,98070.81
2022-11-20T18:29:11.425Z,98063.16
2022-11-20T18:31:37.968Z,98053.38
2022-11-20T18:34:04.994Z,98048.72
2022-11-20T18:36:31.740Z,98045.88
2022-11-20T18:39:00.169Z,98047.72
2022-11-20T18:41:28.423Z,98037.03
2022-11-20T18:43:54.978Z,98036.69
2022-11-20T18:46:21.562Z,98028.38
2022-11-20T18:48:48.006Z,98017.41
2022-11-20T18:51:14.562Z,98010.91
2022-11-20T18:53:46.985Z,98008.53
2022-11-20T18:56:14.123Z,98002.22
2022-11-20T18:58:41.191Z,97994.09
2022-11-20T19:01:08.350Z,98000.03
2022-11-20T19:03:35.139Z,98001.88
2022-11-20T19:06:01.705Z,97997.75
2022-11-20T19:08:28.767Z,98017.41
2022-11-20T19:10:55.432Z,98007.16
2022-11-20T19:13:21.787Z,98002.31
2022-11-20T19:15:48.237Z,98003.56
2022-11-20T19:18:14.785Z,98009.06
2022-11-20T19:20:41.198Z,98005.56
2022-11-20T19:23:07.666Z,98019.69
2022-11-20T19:25:38.166Z,98030.72
2022-11-20T19:28:05.306Z,98019.75
2022-11-20T19:30:33.284Z,98022.50
2022-11-20T19:32:59.937Z,98021.41
2022-11-20T19:35:26.349Z,98027.25
2022-11-20T19:37:53.290Z,98022.97
2022-11-20T19:40:19.861Z,98018.13
2022-11-20T19:42:46.206Z,98019.03
2022-11-20T19:45:12.699Z,98009.19
2022-11-20T19:48:06.672Z,98002.44
2022-11-20T19:50:25.632Z,98000.31
2022-11-20T19:52:55.813Z,97996.50
2022-11-20T19:55:25.217Z,98002.44
2022-11-20T19:57:51.596Z,97986.00
2022-11-20T20:00:24.480Z,97984.53
2022-11-20T20:02:54.897Z,97983.53
2022-11-20T20:05:21.572Z,97979.69
2022-11-20T20:07:48.165Z,97978.69
2022-11-20T20:10:14.711Z,97973.66
2022-11-20T20:12:41.158Z,97965.34
2022-11-20T20:15:07.972Z,97968.47
2022-11-20T20:17:34.523Z,97969.28
2022-11-20T20:20:00.928Z,97969.66
2022-11-20T20:22:27.597Z,97974.19
2022-11-20T20:24:54.008Z,97974.19
2022-11-20T20:27:20.446Z,97980.84
2022-11-20T20:29:46.879Z,97972.91
2022-11-20T20:32:13.333Z,97975.75
2022-11-20T20:34:40.034Z,97971.47
2022-11-20T20:37:06.366Z,97972.75
2022-11-20T20:39:33.027Z,97964.16
2022-11-20T20:41:59.424Z,97974.38
2022-11-20T20:44:25.833Z,97973.38
2022-11-20T20:46:52.719Z,97976.22
2022-11-20T20:49:19.244Z,97974.19
2022-11-20T20:51:45.616Z,97983.13
2022-11-20T20:54:12.079Z,97983.97
2022-11-20T20:56:38.604Z,97986.16
2022-11-20T20:59:05.106Z,97983.88
2022-11-20T21:01:31.821Z,97978.13
2022-11-20T21:03:58.260Z,97987.25
2022-11-20T21:06:25.693Z,97991.56
2022-11-20T21:08:52.203Z,97993.94
2022-11-20T21:11:20.303Z,97991.94
2022-11-20T21:13:47.910Z,97992.09
2022-11-20T21:16:16.461Z,97989.66
2022-11-20T21:18:43.077Z,97982.53
2022-11-20T21:21:13.617Z,97997.97
2022-11-20T21:23:40.478Z,97996.94
2022-11-20T21:26:08.935Z,97998.34
2022-11-20T21:28:36.791Z,98004.06
2022-11-20T21:31:11.641Z,97995.31
2022-11-20T21:33:43.786Z,98007.19
2022-11-20T21:36:12.610Z,97997.97
2022-11-20T21:38:39.068Z,98005.25
2022-11-20T21:41:07.623Z,97986.19
2022-11-20T21:43:34.168Z,97998.59
2022-11-20T21:46:05.863Z,97993.03
2022-11-20T21:48:33.659Z,97997.06
2022-11-20T21:51:07.554Z,97978.03
2022-11-20T21:53:34.615Z,97984.63
2022-11-20T21:56:01.741Z,97986.19
2022-11-20T21:58:28.204Z,97993.00
2022-11-20T22:00:54.824Z,97985.25
2022-11-20T22:03:21.555Z,97983.50
2022-11-20T22:05:57.719Z,97995.66
2022-11-20T22:08:25.309Z,97988.91
2022-11-20T22:11:00.918Z,97996.84
2022-11-20T22:13:28.537Z,98011.69
2022-11-20T22:16:01.554Z,98001.66
2022-11-20T22:18:27.930Z,98011.41
2022-11-20T22:20:54.585Z,98015.41
2022-11-20T22:23:21.090Z,98014.06
2022-11-20T22:25:47.444Z,98010.59
2022-11-20T22:28:14.104Z,98026.09
2022-11-20T22:30:40.466Z,98027.78
2022-11-20T22:33:13.055Z,98017.66
2022-11-20T22:35:39.987Z,98022.56
2022-11-20T22:38:06.423Z,98017.28
2022-11-20T22:40:32.953Z,98020.91
2022-11-20T22:42:59.334Z,98021.56
2022-11-20T22:45:25.715Z,98027.97
2022-11-20T22:47:52.052Z,98016.47
2022-11-20T22:50:18.720Z,98020.59
2022-11-20T22:52:45.228Z,98021.41
2022-11-20T22:55:16.123Z,98024.03
2022-11-20T22:57:43.166Z,98028.81
2022-11-20T23:00:10.322Z,98036.56
2022-11-20T23:02:37.776Z,98036.56
2022-11-20T23:05:04.604Z,98032.66
2022-11-20T23:07:30.962Z,98034.00
2022-11-20T23:09:57.531Z,98042.31
2022-11-20T23:12:23.933Z,98040.03
2022-11-20T23:14:50.433Z,98042.84
2022-11-20T23:17:17.016Z,98037.75
2022-11-20T23:19:43.359Z,98049.97
2022-11-20T23:22:09.805Z,98043.50
2022-11-20T23:24:36.451Z,98047.50
2022-11-20T23:27:02.905Z,98052.59
2022-11-20T23:29:29.301Z,98037.75
2022-11-20T23:31:55.878Z,98042.22
2022-11-20T23:34:22.253Z,98036.06
2022-11-20T23:36:48.876Z,98044.38
2022-11-20T23:39:15.384Z,98042.75
2022-11-20T23:41:41.755Z,98043.56
2022-11-20T23:44:08.324Z,98043.09
2022-11-20T23:46:34.697Z,98048.03
2022-11-20T23:49:01.091Z,98043.56
2022-11-20T23:51:27.662Z,98050.88
2022-11-20T23:53:54.337Z,98044.72
2022-11-20T23:56:20.932Z,98041.72
2022-11-20T23:58:47.449Z,98043.19
